BAW57K EGLL-FAOR
Flight info
| Callsign | BAW57K |
|---|---|
| Flight time | N/A |
| Altitude | 23000 |
| Route | MAXIT1F MAXIT Y803 MID L612 XAMAB/N0481F350 UL612 VEULE DCT DEKOD DCT DISAK DCT DIRMO DCT ETAMO DCT ADEKA DCT MOKDI/N0483F370 DCT MEN DCT AMLIR DCT FJR DCT OBLAD DCT KAMER UM998 CSO UA605 DJA UB730 DIR UA607 USPOK/N0485F390 UA607 FL UM731 AVONI/N0479F410 UM731 RUDAS UQ25 ITROL UQ44 AVAGO AVAGO1C |
| Aircraft | A388/J-SDE1E2E3GHIJ3J4J5J6LM1M2OP2RWXYZ/LB1D1 |
Departure
| Time | 2026-05-03 22:17 |
|---|---|
| Airport | London Heathrow Airport (EGLL) |
Arrival
| Time | N/A |
|---|---|
| Airport | O.R. Tambo International Airport (FAOR) |
| Time | Latitude | Longitude | Altitude | Speed | Heading |
|---|---|---|---|---|---|
| 2026-05-03 21:24 | 51.47224 | -0.47486 | 95 ft | 0 kts | 270° |
| 2026-05-03 22:02 | 51.47224 | -0.47461 | 94 ft | 4 kts | 270° |
| 2026-05-03 22:03 | 51.47224 | -0.47418 | 92 ft | 3 kts | 270° |
| 2026-05-03 22:03 | 51.47225 | -0.47384 | 92 ft | 4 kts | 248° |
| 2026-05-03 22:03 | 51.47241 | -0.47357 | 93 ft | 3 kts | 194° |
| 2026-05-03 22:03 | 51.47265 | -0.47353 | 92 ft | 3 kts | 180° |
| 2026-05-03 22:04 | 51.47291 | -0.47354 | 93 ft | 1 kts | 180° |
| 2026-05-03 22:04 | 51.47292 | -0.47354 | 93 ft | 0 kts | 180° |
| 2026-05-03 22:08 | 51.47270 | -0.47353 | 96 ft | 8 kts | 180° |
| 2026-05-03 22:08 | 51.47209 | -0.47353 | 93 ft | 10 kts | 179° |
| 2026-05-03 22:08 | 51.47138 | -0.47352 | 91 ft | 11 kts | 180° |
| 2026-05-03 22:09 | 51.47060 | -0.47351 | 94 ft | 12 kts | 180° |
| 2026-05-03 22:09 | 51.46976 | -0.47350 | 91 ft | 12 kts | 180° |
| 2026-05-03 22:09 | 51.46889 | -0.47350 | 94 ft | 13 kts | 180° |
| 2026-05-03 22:10 | 51.46777 | -0.47350 | 91 ft | 0 kts | 165° |
| 2026-05-03 22:10 | 51.46747 | -0.47306 | 95 ft | 6 kts | 99° |
| 2026-05-03 22:10 | 51.46745 | -0.47214 | 94 ft | 13 kts | 90° |
| 2026-05-03 22:10 | 51.46746 | -0.47016 | 95 ft | 19 kts | 89° |
| 2026-05-03 22:11 | 51.46747 | -0.46793 | 95 ft | 21 kts | 90° |
| 2026-05-03 22:11 | 51.46748 | -0.46557 | 94 ft | 22 kts | 90° |
| 2026-05-03 22:11 | 51.46746 | -0.46321 | 93 ft | 20 kts | 88° |
| 2026-05-03 22:11 | 51.46750 | -0.46093 | 91 ft | 21 kts | 89° |
| 2026-05-03 22:12 | 51.46749 | -0.45856 | 96 ft | 21 kts | 85° |
| 2026-05-03 22:12 | 51.46749 | -0.45618 | 94 ft | 22 kts | 89° |
| 2026-05-03 22:12 | 51.46749 | -0.45374 | 94 ft | 22 kts | 90° |
| 2026-05-03 22:12 | 51.46749 | -0.45120 | 94 ft | 23 kts | 90° |
| 2026-05-03 22:13 | 51.46749 | -0.44909 | 93 ft | 17 kts | 88° |
| 2026-05-03 22:13 | 51.46752 | -0.44729 | 93 ft | 17 kts | 89° |
| 2026-05-03 22:13 | 51.46752 | -0.44529 | 92 ft | 19 kts | 90° |
| 2026-05-03 22:13 | 51.46753 | -0.44311 | 93 ft | 20 kts | 90° |
| 2026-05-03 22:14 | 51.46761 | -0.44080 | 95 ft | 21 kts | 73° |
| 2026-05-03 22:14 | 51.46770 | -0.43866 | 94 ft | 17 kts | 89° |
| 2026-05-03 22:14 | 51.46772 | -0.43679 | 94 ft | 7 kts | 89° |
| 2026-05-03 22:14 | 51.46758 | -0.43618 | 95 ft | 5 kts | 153° |
| 2026-05-03 22:15 | 51.46719 | -0.43607 | 91 ft | 7 kts | 179° |
| 2026-05-03 22:15 | 51.46665 | -0.43606 | 92 ft | 9 kts | 179° |
| 2026-05-03 22:15 | 51.46600 | -0.43605 | 91 ft | 10 kts | 179° |
| 2026-05-03 22:15 | 51.46533 | -0.43606 | 92 ft | 6 kts | 181° |
| 2026-05-03 22:16 | 51.46505 | -0.43621 | 96 ft | 4 kts | 235° |
| 2026-05-03 22:16 | 51.46494 | -0.43666 | 93 ft | 5 kts | 263° |
| 2026-05-03 22:16 | 51.46493 | -0.43698 | 91 ft | 0 kts | 270° |
| 2026-05-03 22:16 | 51.46493 | -0.43950 | 91 ft | 59 kts | 269° |
| 2026-05-03 22:17 | 51.46490 | -0.44991 | 94 ft | 126 kts | 270° |
| 2026-05-03 22:17 | 51.46492 | -0.46618 | 234 ft | 156 kts | 269° |
| 2026-05-03 22:17 | 51.46487 | -0.48357 | 782 ft | 159 kts | 269° |
| 2026-05-03 22:17 | 51.46472 | -0.50143 | 1305 ft | 164 kts | 269° |
| 2026-05-03 22:18 | 51.46406 | -0.52001 | 1760 ft | 171 kts | 256° |
| 2026-05-03 22:18 | 51.45773 | -0.53668 | 1930 ft | 183 kts | 233° |
| 2026-05-03 22:18 | 51.44973 | -0.55304 | 2037 ft | 192 kts | 232° |
| 2026-05-03 22:18 | 51.44088 | -0.57078 | 2051 ft | 210 kts | 232° |
| 2026-05-03 22:19 | 51.43141 | -0.58937 | 2159 ft | 222 kts | 231° |
| 2026-05-03 22:19 | 51.41987 | -0.60783 | 2299 ft | 246 kts | 212° |
| 2026-05-03 22:19 | 51.40332 | -0.61667 | 2657 ft | 259 kts | 182° |
| 2026-05-03 22:19 | 51.38555 | -0.61176 | 3307 ft | 262 kts | 159° |
| 2026-05-03 22:20 | 51.36903 | -0.60047 | 4060 ft | 261 kts | 155° |
| 2026-05-03 22:20 | 51.35243 | -0.58853 | 4818 ft | 263 kts | 157° |
| 2026-05-03 22:20 | 51.33538 | -0.57735 | 5500 ft | 266 kts | 159° |
| 2026-05-03 22:20 | 51.31798 | -0.56695 | 5937 ft | 269 kts | 161° |
| 2026-05-03 22:21 | 51.30006 | -0.55837 | 5992 ft | 268 kts | 172° |
| 2026-05-03 22:21 | 51.28151 | -0.55795 | 5999 ft | 267 kts | 189° |
| 2026-05-03 22:21 | 51.26332 | -0.56351 | 6000 ft | 266 kts | 189° |
| 2026-05-03 22:21 | 51.24494 | -0.56724 | 6002 ft | 266 kts | 187° |
| 2026-05-03 22:22 | 51.22658 | -0.57109 | 5999 ft | 266 kts | 189° |
| 2026-05-03 22:22 | 51.20827 | -0.57583 | 6016 ft | 267 kts | 190° |
| 2026-05-03 22:22 | 51.18991 | -0.58129 | 6282 ft | 269 kts | 191° |
| 2026-05-03 22:22 | 51.17154 | -0.58709 | 6987 ft | 268 kts | 192° |
| 2026-05-03 22:23 | 51.15320 | -0.59300 | 7685 ft | 270 kts | 192° |
| 2026-05-03 22:23 | 51.13496 | -0.59890 | 8356 ft | 272 kts | 192° |
| 2026-05-03 22:23 | 51.11630 | -0.60493 | 9042 ft | 275 kts | 192° |
| 2026-05-03 22:23 | 51.09745 | -0.61101 | 9724 ft | 278 kts | 192° |
| 2026-05-03 22:24 | 51.07836 | -0.61715 | 10245 ft | 285 kts | 192° |
| 2026-05-03 22:24 | 51.05803 | -0.61996 | 10394 ft | 305 kts | 174° |
| 2026-05-03 22:24 | 51.03729 | -0.60928 | 10555 ft | 325 kts | 151° |
| 2026-05-03 22:24 | 51.01846 | -0.58830 | 10914 ft | 334 kts | 146° |
| 2026-05-03 22:25 | 50.99944 | -0.56702 | 11488 ft | 336 kts | 147° |
| 2026-05-03 22:25 | 50.98007 | -0.54602 | 12088 ft | 338 kts | 148° |
| 2026-05-03 22:25 | 50.96056 | -0.52517 | 12665 ft | 340 kts | 148° |
| 2026-05-03 22:25 | 50.94080 | -0.50417 | 13231 ft | 342 kts | 148° |
| 2026-05-03 22:26 | 50.92098 | -0.48313 | 13815 ft | 345 kts | 148° |
| 2026-05-03 22:26 | 50.90100 | -0.46193 | 14287 ft | 347 kts | 148° |
| 2026-05-03 22:26 | 50.88109 | -0.44080 | 14786 ft | 350 kts | 148° |
| 2026-05-03 22:26 | 50.86496 | -0.42370 | 15169 ft | 352 kts | 148° |